Time;durP1;ratioP1;P1;durP2;ratioP2;P2;SDS_P1;SDS_P2;PMS_P1;PMS_P2;Temp;Humidity;BMP_temperature;BMP_pressure;BME280_temperature;BME280_humidity;BME280_pressure;Samples;Min_cycle;Max_cycle;Signal;HPM_P1;HPM_P2
2022/12/23 15:21:11;;;;;;;17.52;10.07;;;;;;;;;;5025751;28;87223;-72
2022/12/23 15:23:46;;;;;;;13.55;10.65;;;;;;;;;;5013915;28;88886;-70
2022/12/23 15:26:13;;;;;;;20.58;11.15;;;;;;;;;;5009683;28;89787;-69
2022/12/23 15:28:40;;;;;;;17.98;11.63;;;;;;;;;;5002267;28;88996;-71
2022/12/23 15:31:19;;;;;;;20.27;12.68;;;;;;;;;;5013101;28;93130;-66
2022/12/23 15:33:45;;;;;;;19.55;13.27;;;;;;;;;;5006796;28;91781;-67
2022/12/23 15:36:34;;;;;;;18.77;12.98;;;;;;;;;;5005327;28;88978;-67
2022/12/23 15:39:07;;;;;;;19.08;11.82;;;;;;;;;;5010079;28;91097;-67
2022/12/23 15:41:40;;;;;;;19.05;12.38;;;;;;;;;;5010122;28;90677;-69
2022/12/23 15:44:09;;;;;;;26.20;14.30;;;;;;;;;;5011200;28;90331;-70
2022/12/23 15:46:37;;;;;;;29.55;15.38;;;;;;;;;;5009760;28;89781;-69
2022/12/23 15:49:04;;;;;;;22.60;12.63;;;;;;;;;;4999248;28;90334;-68
2022/12/23 15:51:32;;;;;;;27.50;12.40;;;;;;;;;;5008104;28;90543;-68
2022/12/23 15:54:20;;;;;;;21.55;12.77;;;;;;;;;;4992717;28;89496;-68
2022/12/23 15:56:47;;;;;;;25.10;12.52;;;;;;;;;;4992046;28;88990;-68
2022/12/23 15:59:21;;;;;;;21.80;13.13;;;;;;;;;;4998734;28;90171;-67
2022/12/23 16:01:47;;;;;;;20.52;13.85;;;;;;;;;;5011326;28;90640;-68
2022/12/23 16:04:18;;;;;;;19.70;12.77;;;;;;;;;;5015708;28;89029;-68
2022/12/23 16:06:47;;;;;;;30.02;15.48;;;;;;;;;;5013138;28;89121;-68
2022/12/23 16:09:16;;;;;;;24.35;14.15;;;;;;;;;;5011931;28;88852;-68
2022/12/23 16:11:52;;;;;;;34.78;20.35;;;;;;;;;;5011094;28;91185;-68
2022/12/23 16:14:20;;;;;;;33.20;19.58;;;;;;;;;;5011876;28;89636;-69
2022/12/23 16:16:47;;;;;;;26.48;16.33;;;;;;;;;;5012660;28;89003;-68
2022/12/23 16:19:32;;;;;;;28.50;15.43;;;;;;;;;;5010969;28;91303;-68
2022/12/23 16:21:58;;;;;;;32.65;16.08;;;;;;;;;;5009812;28;90001;-68
2022/12/23 16:24:25;;;;;;;28.45;15.68;;;;;;;;;;5010272;28;89083;-69
2022/12/23 16:26:52;;;;;;;28.35;15.80;;;;;;;;;;5015408;28;90173;-68
2022/12/23 16:29:19;;;;;;;31.45;18.15;;;;;;;;;;4997727;28;88994;-69
2022/12/23 16:31:46;;;;;;;44.58;28.80;;;;;;;;;;4982975;28;91212;-68
2022/12/23 16:34:21;;;;;;;35.20;21.25;;;;;;;;;;4995939;28;89764;-69
2022/12/23 16:36:47;;;;;;;33.42;21.95;;;;;;;;;;4999447;28;89057;-69
2022/12/23 16:39:17;;;;;;;38.35;22.75;;;;;;;;;;4996420;28;89348;-70
2022/12/23 16:41:44;;;;;;;43.08;25.98;;;;;;;;;;4994182;28;91005;-72
2022/12/23 16:44:10;;;;;;;29.60;21.02;;;;;;;;;;4996496;28;89343;-71
2022/12/23 16:46:38;;;;;;;30.83;19.30;;;;;;;;;;4997245;28;91317;-71
2022/12/23 16:49:07;;;;;;;30.48;18.50;;;;;;;;;;5002021;28;89942;-67
2022/12/23 16:51:33;;;;;;;31.38;18.80;;;;;;;;;;4998987;28;90114;-69
2022/12/23 16:54:00;;;;;;;35.13;20.15;;;;;;;;;;4999546;28;89171;-68
2022/12/23 16:56:27;;;;;;;33.65;19.15;;;;;;;;;;5000761;28;88958;-69
2022/12/23 16:58:53;;;;;;;29.33;17.63;;;;;;;;;;4995649;28;90044;-69
2022/12/23 17:01:21;;;;;;;37.63;18.73;;;;;;;;;;4995632;28;90618;-69
2022/12/23 17:03:48;;;;;;;39.55;22.23;;;;;;;;;;5000475;28;89087;-70
2022/12/23 17:06:15;;;;;;;43.38;23.63;;;;;;;;;;5001280;28;90008;-70
2022/12/23 17:08:42;;;;;;;32.92;20.65;;;;;;;;;;4999359;28;89538;-70
2022/12/23 17:11:22;;;;;;;42.00;23.33;;;;;;;;;;5001697;28;89017;-71
2022/12/23 17:13:48;;;;;;;44.77;23.30;;;;;;;;;;4997846;28;89949;-70
2022/12/23 17:16:18;;;;;;;33.05;20.08;;;;;;;;;;4987630;28;89062;-69
2022/12/23 17:18:46;;;;;;;25.30;16.38;;;;;;;;;;4985984;28;90359;-69
2022/12/23 17:21:20;;;;;;;30.10;20.65;;;;;;;;;;4986393;28;89162;-68
2022/12/23 17:23:46;;;;;;;19.77;13.43;;;;;;;;;;4978998;28;88879;-69
2022/12/23 17:26:13;;;;;;;19.83;13.57;;;;;;;;;;4987184;28;90047;-67
2022/12/23 17:28:40;;;;;;;17.83;12.18;;;;;;;;;;4997596;28;89589;-67
2022/12/23 17:31:07;;;;;;;20.27;14.02;;;;;;;;;;4997101;28;89761;-68
2022/12/23 17:33:40;;;;;;;19.88;14.35;;;;;;;;;;4998551;28;88942;-68
2022/12/23 17:36:08;;;;;;;26.73;15.27;;;;;;;;;;5014153;28;89043;-67
2022/12/23 17:38:35;;;;;;;21.05;15.43;;;;;;;;;;4995441;28;90328;-67
2022/12/23 17:41:02;;;;;;;24.05;16.67;;;;;;;;;;4996952;28;89872;-67
2022/12/23 17:43:29;;;;;;;26.45;16.05;;;;;;;;;;4997343;28;88840;-67
2022/12/23 17:45:55;;;;;;;30.17;16.67;;;;;;;;;;4997578;28;90129;-67
2022/12/23 17:48:21;;;;;;;28.77;17.08;;;;;;;;;;4994660;28;90727;-66
2022/12/23 17:50:56;;;;;;;30.88;17.13;;;;;;;;;;4997244;28;89067;-67
2022/12/23 17:53:22;;;;;;;29.48;16.52;;;;;;;;;;4999659;28;90046;-67
2022/12/23 17:55:49;;;;;;;39.70;17.63;;;;;;;;;;4997230;28;89397;-67
2022/12/23 17:58:15;;;;;;;36.38;17.92;;;;;;;;;;4995945;28;90094;-67
2022/12/23 18:00:41;;;;;;;35.30;17.65;;;;;;;;;;4982374;28;89641;-67
2022/12/23 18:03:17;;;;;;;35.47;14.95;;;;;;;;;;4990494;28;89351;-67
2022/12/23 18:05:43;;;;;;;41.67;16.42;;;;;;;;;;4983779;28;90474;-67
2022/12/23 18:08:09;;;;;;;44.83;18.80;;;;;;;;;;4995124;28;89840;-66
2022/12/23 18:10:38;;;;;;;47.95;17.05;;;;;;;;;;4997979;28;88978;-67
2022/12/23 18:13:06;;;;;;;54.40;18.13;;;;;;;;;;4996656;28;90267;-66
2022/12/23 18:15:38;;;;;;;53.13;14.75;;;;;;;;;;4998472;28;89653;-68
2022/12/23 18:18:15;;;;;;;54.03;14.80;;;;;;;;;;4995621;28;90157;-66
2022/12/23 18:20:53;;;;;;;45.05;12.38;;;;;;;;;;4996205;28;89760;-66
2022/12/23 18:23:24;;;;;;;63.25;10.85;;;;;;;;;;4995959;28;88911;-66
2022/12/23 18:25:50;;;;;;;;;;;;;;;;;;4988582;28;91164;-67
2022/12/23 18:28:16;;;;;;;80.00;12.48;;;;;;;;;;4995442;28;116138;-67
2022/12/23 18:30:42;;;;;;;60.55;10.35;;;;;;;;;;4997807;28;88831;-67
2022/12/23 18:33:10;;;;;;;72.18;10.95;;;;;;;;;;4993703;28;91625;-68
2022/12/23 18:35:38;;;;;;;77.45;11.30;;;;;;;;;;4993684;28;89626;-69
2022/12/23 18:38:04;;;;;;;76.70;13.88;;;;;;;;;;4999619;28;88995;-68
2022/12/23 18:40:31;;;;;;;80.13;11.70;;;;;;;;;;4994127;28;89213;-68
2022/12/23 18:42:58;;;;;;;90.10;15.50;;;;;;;;;;4977520;28;88884;-68
2022/12/23 18:45:27;;;;;;;75.45;11.15;;;;;;;;;;4982804;28;90042;-67
2022/12/23 18:47:54;;;;;;;74.20;12.10;;;;;;;;;;4995879;28;90670;-68
2022/12/23 18:50:21;;;;;;;72.82;13.00;;;;;;;;;;4995932;28;89000;-67
2022/12/23 18:52:47;;;;;;;75.43;11.95;;;;;;;;;;4996599;28;89802;-67
2022/12/23 18:55:13;;;;;;;84.30;13.38;;;;;;;;;;5007572;28;89400;-67
2022/12/23 18:57:40;;;;;;;72.38;11.93;;;;;;;;;;4994542;28;89206;-67
2022/12/23 19:00:10;;;;;;;73.53;11.07;;;;;;;;;;4998778;28;90056;-67
2022/12/23 19:02:36;;;;;;;65.25;9.80;;;;;;;;;;4992633;28;88986;-67
2022/12/23 19:05:03;;;;;;;66.82;10.52;;;;;;;;;;4996117;28;91198;-68
2022/12/23 19:07:29;;;;;;;77.57;11.10;;;;;;;;;;4995805;28;89860;-68
2022/12/23 19:09:56;;;;;;;78.50;12.07;;;;;;;;;;4994841;28;90622;-69
2022/12/23 19:12:22;;;;;;;71.97;10.38;;;;;;;;;;4996041;28;90069;-68
2022/12/23 19:14:49;;;;;;;64.72;11.80;;;;;;;;;;4996484;28;89869;-68
2022/12/23 19:17:16;;;;;;;77.35;11.50;;;;;;;;;;4996001;28;89210;-68
2022/12/23 19:19:42;;;;;;;74.05;11.82;;;;;;;;;;4995060;28;90060;-70
2022/12/23 19:22:08;;;;;;;82.00;13.85;;;;;;;;;;4986459;28;89534;-70
2022/12/23 19:24:35;;;;;;;69.80;11.88;;;;;;;;;;4995685;28;90114;-71
2022/12/23 19:27:04;;;;;;;67.70;10.73;;;;;;;;;;4994474;28;89523;-71
2022/12/23 19:29:31;;;;;;;71.95;10.68;;;;;;;;;;4992612;28;90274;-72
2022/12/23 19:31:57;;;;;;;56.28;9.93;;;;;;;;;;4992263;28;89096;-72
2022/12/23 19:34:23;;;;;;;76.38;11.70;;;;;;;;;;4997028;28;88465;-71
2022/12/23 19:36:49;;;;;;;76.80;10.00;;;;;;;;;;4993579;28;89286;-69
2022/12/23 19:39:19;;;;;;;71.82;10.50;;;;;;;;;;4992589;28;90435;-69
2022/12/23 19:41:45;;;;;;;67.63;10.45;;;;;;;;;;4996702;28;89629;-68
2022/12/23 19:44:12;;;;;;;95.78;16.17;;;;;;;;;;4995588;28;90213;-70
2022/12/23 19:46:38;;;;;;;78.47;13.68;;;;;;;;;;4993400;28;89598;-69
2022/12/23 19:49:05;;;;;;;69.03;9.48;;;;;;;;;;4979497;28;89391;-70
2022/12/23 19:51:31;;;;;;;69.05;9.52;;;;;;;;;;4994757;28;90450;-69
2022/12/23 19:53:57;;;;;;;73.43;10.50;;;;;;;;;;4980744;28;88646;-70
2022/12/23 19:56:24;;;;;;;68.32;10.02;;;;;;;;;;4993911;28;88871;-69
2022/12/23 19:58:51;;;;;;;60.13;10.35;;;;;;;;;;4993811;28;93618;-68
2022/12/23 20:01:19;;;;;;;53.00;9.70;;;;;;;;;;4995308;28;89599;-69
2022/12/23 20:03:46;;;;;;;63.15;9.77;;;;;;;;;;4996443;28;90428;-69
2022/12/23 20:06:15;;;;;;;57.90;9.93;;;;;;;;;;4996737;28;89566;-69
2022/12/23 20:08:42;;;;;;;71.80;10.57;;;;;;;;;;4997676;28;89684;-69
2022/12/23 20:11:11;;;;;;;75.00;11.77;;;;;;;;;;4998192;28;89112;-69
2022/12/23 20:13:37;;;;;;;74.00;11.57;;;;;;;;;;4998850;28;89908;-69
2022/12/23 20:16:04;;;;;;;70.40;9.77;;;;;;;;;;4998577;28;90317;-69
2022/12/23 20:18:30;;;;;;;65.18;10.05;;;;;;;;;;4998821;28;90056;-69
2022/12/23 20:20:57;;;;;;;67.90;9.98;;;;;;;;;;4996293;28;89571;-68
2022/12/23 20:23:24;;;;;;;64.20;10.30;;;;;;;;;;4981132;28;89566;-69
2022/12/23 20:25:50;;;;;;;60.50;15.85;;;;;;;;;;4984101;28;91515;-69
2022/12/23 20:28:16;;;;;;;57.55;9.70;;;;;;;;;;4997250;28;89800;-69
2022/12/23 20:30:44;;;;;;;44.55;8.98;;;;;;;;;;4998424;28;90249;-69
2022/12/23 20:33:10;;;;;;;54.75;10.88;;;;;;;;;;4999522;28;88906;-70
2022/12/23 20:35:36;;;;;;;49.28;8.38;;;;;;;;;;4997782;28;89273;-68
2022/12/23 20:38:03;;;;;;;39.42;7.30;;;;;;;;;;4996824;28;90093;-70
2022/12/23 20:40:29;;;;;;;45.95;8.20;;;;;;;;;;4997995;28;92071;-69
2022/12/23 20:42:57;;;;;;;38.22;8.40;;;;;;;;;;4999421;28;89030;-69
2022/12/23 20:45:24;;;;;;;41.13;6.32;;;;;;;;;;4999183;28;87616;-69
2022/12/23 20:47:51;;;;;;;34.42;6.38;;;;;;;;;;4999578;28;88094;-70
2022/12/23 20:50:17;;;;;;;32.58;6.32;;;;;;;;;;4998148;28;88222;-70
2022/12/23 20:52:44;;;;;;;33.20;6.78;;;;;;;;;;4991176;28;92018;-70
2022/12/23 20:55:10;;;;;;;37.05;6.68;;;;;;;;;;4997382;28;89828;-70
2022/12/23 20:57:36;;;;;;;40.65;7.70;;;;;;;;;;4996109;28;88099;-70
2022/12/23 21:00:03;;;;;;;37.40;6.97;;;;;;;;;;4998633;28;88863;-70
2022/12/23 21:02:29;;;;;;;39.08;7.88;;;;;;;;;;4999042;28;89327;-70
2022/12/23 21:04:56;;;;;;;45.20;7.07;;;;;;;;;;4996200;28;88054;-69
2022/12/23 21:07:24;;;;;;;39.53;7.32;;;;;;;;;;4998436;28;89225;-70
2022/12/23 21:09:51;;;;;;;36.40;5.97;;;;;;;;;;5002337;28;87916;-69
2022/12/23 21:12:17;;;;;;;36.45;5.82;;;;;;;;;;4997453;28;88089;-70
2022/12/23 21:14:43;;;;;;;45.75;6.32;;;;;;;;;;4993007;28;89224;-70
2022/12/23 21:17:10;;;;;;;44.55;10.80;;;;;;;;;;4996935;28;88755;-70
2022/12/23 21:19:36;;;;;;;77.60;29.52;;;;;;;;;;4996370;28;89103;-70
2022/12/23 21:22:03;;;;;;;71.63;25.73;;;;;;;;;;4985031;28;89116;-70
2022/12/23 21:24:29;;;;;;;47.30;11.27;;;;;;;;;;5000195;28;89743;-69
2022/12/23 21:26:55;;;;;;;43.22;8.65;;;;;;;;;;4987311;28;91112;-69
2022/12/23 21:29:22;;;;;;;47.80;9.80;;;;;;;;;;4997472;28;89462;-69
2022/12/23 21:31:49;;;;;;;55.35;11.48;;;;;;;;;;4998330;28;88351;-69
2022/12/23 21:34:16;;;;;;;44.00;7.88;;;;;;;;;;4985380;28;89410;-71
2022/12/23 21:36:43;;;;;;;40.53;8.25;;;;;;;;;;4994318;28;89773;-71
2022/12/23 21:39:12;;;;;;;50.20;7.60;;;;;;;;;;4993894;28;89742;-71
2022/12/23 21:41:40;;;;;;;31.80;6.15;;;;;;;;;;4990213;28;90857;-71
2022/12/23 21:44:07;;;;;;;43.45;6.40;;;;;;;;;;4998230;28;88095;-72
2022/12/23 21:46:33;;;;;;;36.22;7.88;;;;;;;;;;4996710;28;88808;-70
2022/12/23 21:49:00;;;;;;;40.13;9.25;;;;;;;;;;4985438;28;88972;-71
2022/12/23 21:51:28;;;;;;;42.10;11.73;;;;;;;;;;5000871;28;88135;-70
2022/12/23 21:54:05;;;;;;;55.65;16.60;;;;;;;;;;4995263;28;89651;-71
2022/12/23 21:56:31;;;;;;;60.58;18.73;;;;;;;;;;4996473;28;90205;-71
2022/12/23 21:58:59;;;;;;;57.28;16.63;;;;;;;;;;4995117;28;89495;-71
2022/12/23 22:01:26;;;;;;;43.88;7.95;;;;;;;;;;4996688;28;89210;-70
2022/12/23 22:03:53;;;;;;;39.88;8.13;;;;;;;;;;4998371;28;89721;-71
2022/12/23 22:06:26;;;;;;;42.75;9.05;;;;;;;;;;4996678;28;89149;-71
2022/12/23 22:08:53;;;;;;;39.38;6.72;;;;;;;;;;4991102;28;89033;-71
2022/12/23 22:11:21;;;;;;;37.63;7.13;;;;;;;;;;4996178;28;87981;-71
2022/12/23 22:13:48;;;;;;;39.38;6.95;;;;;;;;;;4999508;28;88819;-70
2022/12/23 22:16:15;;;;;;;46.15;7.93;;;;;;;;;;4997692;28;87971;-70
2022/12/23 22:18:42;;;;;;;39.53;6.57;;;;;;;;;;4996088;28;88938;-69
2022/12/23 22:21:09;;;;;;;36.67;7.13;;;;;;;;;;4983978;28;89134;-71
2022/12/23 22:23:36;;;;;;;54.40;7.30;;;;;;;;;;4978466;28;88173;-71
2022/12/23 22:26:03;;;;;;;50.40;9.00;;;;;;;;;;4976117;28;88302;-71
2022/12/23 22:28:31;;;;;;;42.78;7.35;;;;;;;;;;4977253;28;89391;-70
2022/12/23 22:31:01;;;;;;;35.20;5.70;;;;;;;;;;4992279;28;91647;-72
2022/12/23 22:33:27;;;;;;;;;;;;;;;;;;4998171;28;89768;-71
2022/12/23 22:35:55;;;;;;;38.53;8.07;;;;;;;;;;4995607;28;120572;-71
2022/12/23 22:38:21;;;;;;;45.97;7.80;;;;;;;;;;4997653;28;89194;-71
2022/12/23 22:40:48;;;;;;;51.15;10.35;;;;;;;;;;4996493;28;92243;-69
2022/12/23 22:43:14;;;;;;;46.30;8.73;;;;;;;;;;4996107;28;89499;-70
2022/12/23 22:45:41;;;;;;;41.67;6.13;;;;;;;;;;4990537;28;88709;-70
2022/12/23 22:48:07;;;;;;;37.85;5.50;;;;;;;;;;4984966;28;88851;-70
2022/12/23 22:50:33;;;;;;;42.13;6.80;;;;;;;;;;4989205;28;88455;-72
2022/12/23 22:53:00;;;;;;;39.55;7.00;;;;;;;;;;4993047;28;90030;-69
2022/12/23 22:55:26;;;;;;;43.47;6.97;;;;;;;;;;4990536;28;89795;-69
2022/12/23 22:57:52;;;;;;;40.72;6.25;;;;;;;;;;4990290;28;88047;-69
2022/12/23 23:00:19;;;;;;;50.25;7.35;;;;;;;;;;4994573;28;91631;-69
2022/12/23 23:02:45;;;;;;;38.65;6.65;;;;;;;;;;4988223;28;88909;-69
2022/12/23 23:05:11;;;;;;;50.35;6.78;;;;;;;;;;4991798;28;89577;-69
2022/12/23 23:07:38;;;;;;;38.80;6.43;;;;;;;;;;4995814;28;89025;-70
